sensor_id;sensor_type;location;lat;lon;timestamp;pressure;altitude;pressure_sealevel;temperature;humidity
45403;BME280;47427;51.976;5.326;2023-02-04T00:00:26;103194.66;;;7.15;100.00
45403;BME280;47427;51.976;5.326;2023-02-04T00:03:50;103203.16;;;7.12;100.00
45403;BME280;47427;51.976;5.326;2023-02-04T00:07:12;103206.09;;;7.05;100.00
45403;BME280;47427;51.976;5.326;2023-02-04T00:10:36;103213.19;;;6.96;100.00
45403;BME280;47427;51.976;5.326;2023-02-04T00:13:57;103210.78;;;6.87;100.00
45403;BME280;47427;51.976;5.326;2023-02-04T00:17:20;103223.63;;;6.74;100.00
45403;BME280;47427;51.976;5.326;2023-02-04T00:20:43;103223.19;;;6.58;100.00
45403;BME280;47427;51.976;5.326;2023-02-04T00:24:04;103223.47;;;6.50;100.00
45403;BME280;47427;51.976;5.326;2023-02-04T00:27:27;103229.28;;;6.58;100.00
45403;BME280;47427;51.976;5.326;2023-02-04T00:30:50;103224.59;;;6.64;100.00
45403;BME280;47427;51.976;5.326;2023-02-04T00:34:11;103230.56;;;6.63;100.00
45403;BME280;47427;51.976;5.326;2023-02-04T00:37:34;103223.47;;;6.50;100.00
45403;BME280;47427;51.976;5.326;2023-02-04T00:40:56;103220.88;;;6.18;100.00
45403;BME280;47427;51.976;5.326;2023-02-04T00:44:18;103229.25;;;5.94;100.00
45403;BME280;47427;51.976;5.326;2023-02-04T00:47:41;103237.06;;;5.73;100.00
45403;BME280;47427;51.976;5.326;2023-02-04T00:51:02;103237.31;;;5.56;100.00
45403;BME280;47427;51.976;5.326;2023-02-04T00:54:27;103257.75;;;5.41;100.00
45403;BME280;47427;51.976;5.326;2023-02-04T00:57:50;103263.09;;;5.32;100.00
45403;BME280;47427;51.976;5.326;2023-02-04T01:01:11;103260.34;;;5.31;100.00
45403;BME280;47427;51.976;5.326;2023-02-04T01:04:35;103266.44;;;5.21;100.00
45403;BME280;47427;51.976;5.326;2023-02-04T01:07:56;103269.72;;;5.29;100.00
45403;BME280;47427;51.976;5.326;2023-02-04T01:11:20;103268.31;;;5.32;100.00
45403;BME280;47427;51.976;5.326;2023-02-04T01:14:43;103263.88;;;5.41;100.00
45403;BME280;47427;51.976;5.326;2023-02-04T01:18:04;103271.41;;;5.38;100.00
45403;BME280;47427;51.976;5.326;2023-02-04T01:21:27;103264.41;;;5.37;100.00
45403;BME280;47427;51.976;5.326;2023-02-04T01:24:50;103279.78;;;5.45;100.00
45403;BME280;47427;51.976;5.326;2023-02-04T01:28:30;103279.50;;;5.62;100.00
45403;BME280;47427;51.976;5.326;2023-02-04T01:31:53;103291.34;;;5.69;100.00
45403;BME280;47427;51.976;5.326;2023-02-04T01:35:14;103299.81;;;5.76;100.00
45403;BME280;47427;51.976;5.326;2023-02-04T01:38:37;103295.00;;;5.81;100.00
45403;BME280;47427;51.976;5.326;2023-02-04T01:42:00;103299.81;;;5.76;100.00
45403;BME280;47427;51.976;5.326;2023-02-04T01:45:21;103302.28;;;5.64;100.00
45403;BME280;47427;51.976;5.326;2023-02-04T01:48:44;103308.94;;;5.61;100.00
45403;BME280;47427;51.976;5.326;2023-02-04T01:52:09;103312.34;;;5.60;100.00
45403;BME280;47427;51.976;5.326;2023-02-04T01:55:32;103315.59;;;5.57;100.00
45403;BME280;47427;51.976;5.326;2023-02-04T01:58:57;103314.00;;;5.59;100.00
45403;BME280;47427;51.976;5.326;2023-02-04T02:02:48;103317.81;;;5.73;100.00
45403;BME280;47427;51.976;5.326;2023-02-04T02:06:10;103316.25;;;5.85;100.00
45403;BME280;47427;51.976;5.326;2023-02-04T02:09:33;103320.28;;;6.02;100.00
45403;BME280;47427;51.976;5.326;2023-02-04T02:12:55;103323.03;;;6.14;100.00
45403;BME280;47427;51.976;5.326;2023-02-04T02:16:18;103331.09;;;6.17;100.00
45403;BME280;47427;51.976;5.326;2023-02-04T02:19:42;103327.31;;;6.24;100.00
45403;BME280;47427;51.976;5.326;2023-02-04T02:23:23;103340.88;;;6.30;100.00
45403;BME280;47427;51.976;5.326;2023-02-04T02:26:47;103342.56;;;6.29;100.00
45403;BME280;47427;51.976;5.326;2023-02-04T02:30:11;103335.94;;;6.23;100.00
45403;BME280;47427;51.976;5.326;2023-02-04T02:33:35;103332.41;;;6.12;100.00
45403;BME280;47427;51.976;5.326;2023-02-04T02:36:58;103340.22;;;6.12;100.00
45403;BME280;47427;51.976;5.326;2023-02-04T02:40:21;103342.06;;;6.23;100.00
45403;BME280;47427;51.976;5.326;2023-02-04T02:43:43;103339.72;;;6.26;100.00
45403;BME280;47427;51.976;5.326;2023-02-04T02:47:05;103338.53;;;6.33;100.00
45403;BME280;47427;51.976;5.326;2023-02-04T02:50:30;103340.59;;;6.37;100.00
45403;BME280;47427;51.976;5.326;2023-02-04T02:53:55;103333.81;;;6.39;100.00
45403;BME280;47427;51.976;5.326;2023-02-04T02:57:22;103325.50;;;6.33;100.00
45403;BME280;47427;51.976;5.326;2023-02-04T03:00:45;103341.03;;;6.21;100.00
45403;BME280;47427;51.976;5.326;2023-02-04T03:04:10;103339.84;;;6.18;100.00
45403;BME280;47427;51.976;5.326;2023-02-04T03:07:32;103344.94;;;6.16;100.00
45403;BME280;47427;51.976;5.326;2023-02-04T03:10:54;103339.59;;;6.15;100.00
45403;BME280;47427;51.976;5.326;2023-02-04T03:14:17;103350.56;;;6.11;100.00
45403;BME280;47427;51.976;5.326;2023-02-04T03:17:41;103360.69;;;6.07;100.00
45403;BME280;47427;51.976;5.326;2023-02-04T03:21:06;103351.97;;;6.07;100.00
45403;BME280;47427;51.976;5.326;2023-02-04T03:24:28;103361.47;;;6.06;100.00
45403;BME280;47427;51.976;5.326;2023-02-04T03:27:53;103348.69;;;5.89;100.00
45403;BME280;47427;51.976;5.326;2023-02-04T03:31:16;103341.47;;;5.56;100.00
45403;BME280;47427;51.976;5.326;2023-02-04T03:34:37;103351.19;;;5.28;100.00
45403;BME280;47427;51.976;5.326;2023-02-04T03:38:00;103346.66;;;5.06;100.00
45403;BME280;47427;51.976;5.326;2023-02-04T03:41:23;103359.78;;;4.97;100.00
45403;BME280;47427;51.976;5.326;2023-02-04T03:44:44;103358.47;;;4.92;100.00
45403;BME280;47427;51.976;5.326;2023-02-04T03:48:07;103358.19;;;4.89;100.00
45403;BME280;47427;51.976;5.326;2023-02-04T03:51:28;103360.91;;;4.91;100.00
45403;BME280;47427;51.976;5.326;2023-02-04T03:54:51;103358.84;;;4.87;100.00
45403;BME280;47427;51.976;5.326;2023-02-04T03:58:14;103359.69;;;4.77;100.00
45403;BME280;47427;51.976;5.326;2023-02-04T04:01:35;103375.09;;;4.65;100.00
45403;BME280;47427;51.976;5.326;2023-02-04T04:04:58;103379.16;;;4.53;100.00
45403;BME280;47427;51.976;5.326;2023-02-04T04:08:21;103371.94;;;4.40;100.00
45403;BME280;47427;51.976;5.326;2023-02-04T04:11:42;103374.81;;;4.24;100.00
45403;BME280;47427;51.976;5.326;2023-02-04T04:15:05;103369.41;;;4.12;100.00
45403;BME280;47427;51.976;5.326;2023-02-04T04:18:28;103375.72;;;4.06;100.00
45403;BME280;47427;51.976;5.326;2023-02-04T04:21:51;103376.81;;;3.99;100.00
45403;BME280;47427;51.976;5.326;2023-02-04T04:25:14;103380.00;;;4.05;100.00
45403;BME280;47427;51.976;5.326;2023-02-04T04:28:35;103378.97;;;4.22;100.00
45403;BME280;47427;51.976;5.326;2023-02-04T04:31:58;103375.88;;;4.45;100.00
45403;BME280;47427;51.976;5.326;2023-02-04T04:35:21;103376.38;;;4.60;100.00
45403;BME280;47427;51.976;5.326;2023-02-04T04:38:42;103383.47;;;4.71;100.00
45403;BME280;47427;51.976;5.326;2023-02-04T04:42:05;103377.69;;;4.84;100.00
45403;BME280;47427;51.976;5.326;2023-02-04T04:45:27;103386.72;;;4.98;100.00
45403;BME280;47427;51.976;5.326;2023-02-04T04:48:50;103381.28;;;5.05;100.00
45403;BME280;47427;51.976;5.326;2023-02-04T04:52:13;103382.56;;;5.00;100.00
45403;BME280;47427;51.976;5.326;2023-02-04T04:55:34;103382.31;;;4.97;100.00
45403;BME280;47427;51.976;5.326;2023-02-04T04:58:57;103393.25;;;5.03;100.00
45403;BME280;47427;51.976;5.326;2023-02-04T05:02:19;103386.91;;;5.10;100.00
45403;BME280;47427;51.976;5.326;2023-02-04T05:05:41;103372.88;;;5.18;100.00
45403;BME280;47427;51.976;5.326;2023-02-04T05:09:04;103388.69;;;5.30;100.00
45403;BME280;47427;51.976;5.326;2023-02-04T05:12:26;103381.66;;;5.39;100.00
45403;BME280;47427;51.976;5.326;2023-02-04T05:15:48;103391.84;;;5.46;100.00
45403;BME280;47427;51.976;5.326;2023-02-04T05:19:10;103387.84;;;5.50;100.00
45403;BME280;47427;51.976;5.326;2023-02-04T05:22:32;103393.41;;;5.54;100.00
45403;BME280;47427;51.976;5.326;2023-02-04T05:25:55;103396.97;;;5.55;100.00
45403;BME280;47427;51.976;5.326;2023-02-04T05:29:17;103392.41;;;5.52;100.00
45403;BME280;47427;51.976;5.326;2023-02-04T05:32:39;103397.88;;;5.55;100.00
45403;BME280;47427;51.976;5.326;2023-02-04T05:36:02;103398.94;;;5.57;100.00
45403;BME280;47427;51.976;5.326;2023-02-04T05:39:25;103407.91;;;5.61;100.00
45403;BME280;47427;51.976;5.326;2023-02-04T05:42:46;103405.97;;;5.69;100.00
45403;BME280;47427;51.976;5.326;2023-02-04T05:46:09;103411.44;;;5.72;100.00
45403;BME280;47427;51.976;5.326;2023-02-04T05:49:30;103413.63;;;5.67;100.00
45403;BME280;47427;51.976;5.326;2023-02-04T05:52:53;103414.66;;;5.59;100.00
45403;BME280;47427;51.976;5.326;2023-02-04T05:56:16;103416.50;;;5.60;100.00
45403;BME280;47427;51.976;5.326;2023-02-04T05:59:38;103425.34;;;5.62;100.00
45403;BME280;47427;51.976;5.326;2023-02-04T06:03:01;103426.41;;;5.64;100.00
45403;BME280;47427;51.976;5.326;2023-02-04T06:06:42;103436.41;;;5.59;100.00
45403;BME280;47427;51.976;5.326;2023-02-04T06:10:05;103443.53;;;5.52;100.00
45403;BME280;47427;51.976;5.326;2023-02-04T06:13:28;103442.25;;;5.57;100.00
45403;BME280;47427;51.976;5.326;2023-02-04T06:16:49;103446.16;;;5.62;100.00
45403;BME280;47427;51.976;5.326;2023-02-04T06:20:13;103460.66;;;5.69;100.00
45403;BME280;47427;51.976;5.326;2023-02-04T06:23:36;103453.22;;;5.63;100.00
45403;BME280;47427;51.976;5.326;2023-02-04T06:26:57;103454.13;;;5.63;100.00
45403;BME280;47427;51.976;5.326;2023-02-04T06:30:20;103471.72;;;5.66;100.00
45403;BME280;47427;51.976;5.326;2023-02-04T06:33:42;103476.94;;;5.66;100.00
45403;BME280;47427;51.976;5.326;2023-02-04T06:37:04;103472.09;;;5.60;100.00
45403;BME280;47427;51.976;5.326;2023-02-04T06:40:27;103485.38;;;5.63;100.00
45403;BME280;47427;51.976;5.326;2023-02-04T06:43:49;103485.91;;;5.70;100.00
45403;BME280;47427;51.976;5.326;2023-02-04T06:47:11;103490.78;;;5.75;100.00
45403;BME280;47427;51.976;5.326;2023-02-04T06:50:34;103497.31;;;5.80;100.00
45403;BME280;47427;51.976;5.326;2023-02-04T06:53:56;103489.50;;;5.80;100.00
45403;BME280;47427;51.976;5.326;2023-02-04T06:57:20;103497.56;;;5.83;100.00
45403;BME280;47427;51.976;5.326;2023-02-04T07:00:43;103491.72;;;5.86;100.00
45403;BME280;47427;51.976;5.326;2023-02-04T07:04:04;103498.63;;;5.85;100.00
45403;BME280;47427;51.976;5.326;2023-02-04T07:07:27;103505.44;;;5.94;100.00
45403;BME280;47427;51.976;5.326;2023-02-04T07:10:50;103505.59;;;5.95;100.00
45403;BME280;47427;51.976;5.326;2023-02-04T07:14:11;103509.09;;;5.96;100.00
45403;BME280;47427;51.976;5.326;2023-02-04T07:17:50;103511.06;;;5.98;100.00
45403;BME280;47427;51.976;5.326;2023-02-04T07:21:12;103506.75;;;5.99;100.00
45403;BME280;47427;51.976;5.326;2023-02-04T07:24:35;103523.31;;;5.99;100.00
45403;BME280;47427;51.976;5.326;2023-02-04T07:27:58;103520.69;;;5.99;100.00
45403;BME280;47427;51.976;5.326;2023-02-04T07:31:21;103512.25;;;6.02;100.00
45403;BME280;47427;51.976;5.326;2023-02-04T07:34:44;103520.31;;;6.05;100.00
45403;BME280;47427;51.976;5.326;2023-02-04T07:38:07;103524.25;;;6.10;100.00
45403;BME280;47427;51.976;5.326;2023-02-04T07:41:30;103533.38;;;6.15;100.00
45403;BME280;47427;51.976;5.326;2023-02-04T07:44:52;103531.31;;;6.21;100.00
45403;BME280;47427;51.976;5.326;2023-02-04T07:48:14;103531.19;;;6.30;100.00
45403;BME280;47427;51.976;5.326;2023-02-04T07:51:36;103536.31;;;6.39;100.00
45403;BME280;47427;51.976;5.326;2023-02-04T07:54:59;103551.72;;;6.46;100.00
45403;BME280;47427;51.976;5.326;2023-02-04T07:58:21;103554.03;;;6.53;100.00
45403;BME280;47427;51.976;5.326;2023-02-04T08:01:44;103557.69;;;6.55;100.00
45403;BME280;47427;51.976;5.326;2023-02-04T08:05:09;103559.66;;;6.58;100.00
45403;BME280;47427;51.976;5.326;2023-02-04T08:08:30;103572.69;;;6.58;100.00
45403;BME280;47427;51.976;5.326;2023-02-04T08:11:53;103574.91;;;6.63;100.00
45403;BME280;47427;51.976;5.326;2023-02-04T08:15:15;103574.66;;;6.70;100.00
45403;BME280;47427;51.976;5.326;2023-02-04T08:18:37;103586.94;;;6.82;100.00
45403;BME280;47427;51.976;5.326;2023-02-04T08:22:00;103582.50;;;6.91;100.00
45403;BME280;47427;51.976;5.326;2023-02-04T08:25:22;103585.09;;;7.01;100.00
45403;BME280;47427;51.976;5.326;2023-02-04T08:28:44;103586.94;;;7.12;100.00
45403;BME280;47427;51.976;5.326;2023-02-04T08:32:07;103584.56;;;7.26;100.00
45403;BME280;47427;51.976;5.326;2023-02-04T08:35:30;103585.44;;;7.36;100.00
45403;BME280;47427;51.976;5.326;2023-02-04T08:38:53;103592.88;;;7.52;100.00
45403;BME280;47427;51.976;5.326;2023-02-04T08:42:15;103594.53;;;7.62;100.00
45403;BME280;47427;51.976;5.326;2023-02-04T08:45:38;103600.66;;;7.73;100.00
45403;BME280;47427;51.976;5.326;2023-02-04T08:49:01;103602.06;;;7.79;100.00
45403;BME280;47427;51.976;5.326;2023-02-04T08:52:23;103599.53;;;7.91;100.00
45403;BME280;47427;51.976;5.326;2023-02-04T08:55:45;103598.22;;;7.96;100.00
45403;BME280;47427;51.976;5.326;2023-02-04T08:59:08;103603.53;;;8.08;100.00
45403;BME280;47427;51.976;5.326;2023-02-04T09:02:29;103611.78;;;8.24;100.00
45403;BME280;47427;51.976;5.326;2023-02-04T09:05:52;103603.22;;;8.37;100.00
45403;BME280;47427;51.976;5.326;2023-02-04T09:09:14;103607.81;;;8.40;100.00
45403;BME280;47427;51.976;5.326;2023-02-04T09:12:37;103623.66;;;8.41;100.00
45403;BME280;47427;51.976;5.326;2023-02-04T09:15:59;103621.63;;;8.49;100.00
45403;BME280;47427;51.976;5.326;2023-02-04T09:19:21;103619.03;;;8.49;100.00
45403;BME280;47427;51.976;5.326;2023-02-04T09:22:46;103619.44;;;8.65;100.00
45403;BME280;47427;51.976;5.326;2023-02-04T09:26:14;103619.78;;;9.04;100.00
45403;BME280;47427;51.976;5.326;2023-02-04T09:29:36;103630.19;;;9.26;100.00
45403;BME280;47427;51.976;5.326;2023-02-04T09:32:58;103629.69;;;9.53;100.00
45403;BME280;47427;51.976;5.326;2023-02-04T09:36:21;103624.09;;;9.96;100.00
45403;BME280;47427;51.976;5.326;2023-02-04T09:39:43;103620.25;;;11.15;100.00
45403;BME280;47427;51.976;5.326;2023-02-04T09:43:06;103609.63;;;12.33;100.00
45403;BME280;47427;51.976;5.326;2023-02-04T09:46:30;103610.31;;;14.53;100.00
45403;BME280;47427;51.976;5.326;2023-02-04T09:49:53;103621.78;;;14.06;100.00
45403;BME280;47427;51.976;5.326;2023-02-04T09:53:20;103638.22;;;13.71;100.00
45403;BME280;47427;51.976;5.326;2023-02-04T09:56:43;103637.72;;;13.04;100.00
45403;BME280;47427;51.976;5.326;2023-02-04T10:00:21;103636.09;;;12.63;100.00
45403;BME280;47427;51.976;5.326;2023-02-04T10:03:46;103633.88;;;13.27;100.00
45403;BME280;47427;51.976;5.326;2023-02-04T10:07:11;103643.81;;;13.02;100.00
45403;BME280;47427;51.976;5.326;2023-02-04T10:10:53;103634.59;;;12.53;100.00
45403;BME280;47427;51.976;5.326;2023-02-04T10:14:22;103648.06;;;13.43;100.00
45403;BME280;47427;51.976;5.326;2023-02-04T10:17:57;103641.25;;;16.46;98.39
45403;BME280;47427;51.976;5.326;2023-02-04T10:21:31;103644.00;;;17.89;91.08
45403;BME280;47427;51.976;5.326;2023-02-04T10:24:53;103643.44;;;17.76;85.83
45403;BME280;47427;51.976;5.326;2023-02-04T10:28:16;103648.75;;;19.39;75.90
45403;BME280;47427;51.976;5.326;2023-02-04T10:31:45;103649.44;;;20.70;72.36
45403;BME280;47427;51.976;5.326;2023-02-04T10:35:14;103649.88;;;21.17;54.60
45403;BME280;47427;51.976;5.326;2023-02-04T10:38:37;103644.97;;;18.58;58.38
45403;BME280;47427;51.976;5.326;2023-02-04T10:42:00;103644.50;;;18.70;58.32
45403;BME280;47427;51.976;5.326;2023-02-04T10:45:53;103646.50;;;17.23;61.12
45403;BME280;47427;51.976;5.326;2023-02-04T10:49:23;103638.31;;;18.25;60.44
45403;BME280;47427;51.976;5.326;2023-02-04T10:52:52;103634.66;;;19.94;52.76
45403;BME280;47427;51.976;5.326;2023-02-04T10:56:20;103641.66;;;21.10;51.76
45403;BME280;47427;51.976;5.326;2023-02-04T10:59:43;103643.69;;;22.26;49.80
45403;BME280;47427;51.976;5.326;2023-02-04T11:03:21;103636.31;;;21.78;46.00
45403;BME280;47427;51.976;5.326;2023-02-04T11:07:02;103641.47;;;20.43;50.28
45403;BME280;47427;51.976;5.326;2023-02-04T11:10:31;103640.34;;;19.01;52.51
45403;BME280;47427;51.976;5.326;2023-02-04T11:17:28;103637.25;;;15.99;58.96
45403;BME280;47427;51.976;5.326;2023-02-04T11:20:54;103645.06;;;15.62;61.03
45403;BME280;47427;51.976;5.326;2023-02-04T11:24:24;103637.09;;;15.96;62.94
45403;BME280;47427;51.976;5.326;2023-02-04T11:27:46;103626.22;;;16.08;62.66
45403;BME280;47427;51.976;5.326;2023-02-04T11:35:20;103634.81;;;15.68;62.55
45403;BME280;47427;51.976;5.326;2023-02-04T11:38:47;103633.75;;;14.96;64.51
45403;BME280;47427;51.976;5.326;2023-02-04T11:42:37;103634.19;;;14.55;64.05
45403;BME280;47427;51.976;5.326;2023-02-04T11:46:14;103631.22;;;14.65;67.20
45403;BME280;47427;51.976;5.326;2023-02-04T11:49:36;103625.34;;;14.54;66.22
45403;BME280;47427;51.976;5.326;2023-02-04T11:53:00;103633.03;;;14.18;67.00
45403;BME280;47427;51.976;5.326;2023-02-04T11:56:28;103631.97;;;14.00;68.41
45403;BME280;47427;51.976;5.326;2023-02-04T11:59:52;103631.81;;;13.97;68.14
45403;BME280;47427;51.976;5.326;2023-02-04T12:03:26;103636.03;;;14.41;67.58
45403;BME280;47427;51.976;5.326;2023-02-04T12:06:59;103632.72;;;15.79;63.70
45403;BME280;47427;51.976;5.326;2023-02-04T12:10:26;103631.41;;;16.63;59.96
45403;BME280;47427;51.976;5.326;2023-02-04T12:13:51;103634.22;;;16.47;60.20
45403;BME280;47427;51.976;5.326;2023-02-04T12:17:18;103636.72;;;16.63;60.05
45403;BME280;47427;51.976;5.326;2023-02-04T12:20:41;103628.50;;;16.20;60.48
45403;BME280;47427;51.976;5.326;2023-02-04T12:24:02;103637.06;;;15.60;62.33
45403;BME280;47427;51.976;5.326;2023-02-04T12:27:25;103642.34;;;15.43;62.50
45403;BME280;47427;51.976;5.326;2023-02-04T12:30:48;103648.41;;;14.89;62.70
45403;BME280;47427;51.976;5.326;2023-02-04T12:34:09;103646.19;;;14.49;64.85
45403;BME280;47427;51.976;5.326;2023-02-04T12:37:32;103650.25;;;15.08;63.34
45403;BME280;47427;51.976;5.326;2023-02-04T12:40:55;103649.16;;;15.37;63.40
45403;BME280;47427;51.976;5.326;2023-02-04T12:44:17;103641.47;;;15.26;62.70
45403;BME280;47427;51.976;5.326;2023-02-04T12:47:41;103640.78;;;16.00;61.70
45403;BME280;47427;51.976;5.326;2023-02-04T12:51:02;103639.88;;;18.65;56.03
45403;BME280;47427;51.976;5.326;2023-02-04T12:54:25;103650.63;;;19.41;52.35
45403;BME280;47427;51.976;5.326;2023-02-04T12:57:48;103653.88;;;17.51;54.64
45403;BME280;47427;51.976;5.326;2023-02-04T13:01:09;103638.13;;;16.55;57.83
45403;BME280;47427;51.976;5.326;2023-02-04T13:04:32;103644.38;;;15.82;59.93
45403;BME280;47427;51.976;5.326;2023-02-04T13:07:55;103636.09;;;15.24;59.56
45403;BME280;47427;51.976;5.326;2023-02-04T13:11:18;103637.50;;;17.40;57.01
45403;BME280;47427;51.976;5.326;2023-02-04T13:14:42;103629.41;;;19.44;51.46
45403;BME280;47427;51.976;5.326;2023-02-04T13:18:03;103627.28;;;19.09;51.17
45403;BME280;47427;51.976;5.326;2023-02-04T13:21:26;103622.72;;;18.79;51.67
45403;BME280;47427;51.976;5.326;2023-02-04T13:24:49;103616.69;;;18.84;49.56
45403;BME280;47427;51.976;5.326;2023-02-04T13:28:10;103616.50;;;17.04;53.85
45403;BME280;47427;51.976;5.326;2023-02-04T13:31:51;103618.09;;;17.01;54.34
45403;BME280;47427;51.976;5.326;2023-02-04T13:35:14;103611.09;;;19.54;49.97
45403;BME280;47427;51.976;5.326;2023-02-04T13:38:37;103612.16;;;21.38;46.20
45403;BME280;47427;51.976;5.326;2023-02-04T13:42:00;103602.75;;;21.54;45.36
45403;BME280;47427;51.976;5.326;2023-02-04T13:45:21;103603.78;;;22.81;42.50
45403;BME280;47427;51.976;5.326;2023-02-04T13:48:44;103609.56;;;21.41;42.12
45403;BME280;47427;51.976;5.326;2023-02-04T13:52:06;103599.09;;;21.87;41.27
45403;BME280;47427;51.976;5.326;2023-02-04T13:55:28;103595.50;;;21.49;42.05
45403;BME280;47427;51.976;5.326;2023-02-04T13:58:51;103594.19;;;19.79;43.70
45403;BME280;47427;51.976;5.326;2023-02-04T14:02:12;103602.63;;;19.65;45.47
45403;BME280;47427;51.976;5.326;2023-02-04T14:05:35;103604.03;;;19.28;46.21
45403;BME280;47427;51.976;5.326;2023-02-04T14:09:01;103593.03;;;17.99;48.10
45403;BME280;47427;51.976;5.326;2023-02-04T14:12:23;103602.84;;;16.95;50.57
45403;BME280;47427;51.976;5.326;2023-02-04T14:15:46;103613.84;;;15.37;53.93
45403;BME280;47427;51.976;5.326;2023-02-04T14:19:07;103614.19;;;14.92;57.46
45403;BME280;47427;51.976;5.326;2023-02-04T14:22:30;103614.28;;;14.61;58.43
45403;BME280;47427;51.976;5.326;2023-02-04T14:25:53;103615.66;;;14.38;59.26
45403;BME280;47427;51.976;5.326;2023-02-04T14:29:15;103608.41;;;14.03;59.96
45403;BME280;47427;51.976;5.326;2023-02-04T14:32:57;103619.03;;;13.73;62.16
45403;BME280;47427;51.976;5.326;2023-02-04T14:36:19;103609.66;;;14.09;63.54
45403;BME280;47427;51.976;5.326;2023-02-04T14:39:42;103609.78;;;13.96;63.22
45403;BME280;47427;51.976;5.326;2023-02-04T14:43:06;103621.22;;;13.80;63.40
45403;BME280;47427;51.976;5.326;2023-02-04T14:46:28;103614.19;;;14.60;62.54
45403;BME280;47427;51.976;5.326;2023-02-04T14:49:50;103616.75;;;15.25;59.67
45403;BME280;47427;51.976;5.326;2023-02-04T14:53:13;103616.91;;;14.78;60.11
45403;BME280;47427;51.976;5.326;2023-02-04T14:56:34;103611.34;;;14.24;61.82
45403;BME280;47427;51.976;5.326;2023-02-04T14:59:57;103622.41;;;13.56;64.26
45403;BME280;47427;51.976;5.326;2023-02-04T15:03:20;103627.28;;;13.05;66.38
45403;BME280;47427;51.976;5.326;2023-02-04T15:06:41;103632.34;;;12.87;67.59
45403;BME280;47427;51.976;5.326;2023-02-04T15:10:05;103617.09;;;12.68;68.46
45403;BME280;47427;51.976;5.326;2023-02-04T15:13:26;103626.50;;;12.78;68.89
45403;BME280;47427;51.976;5.326;2023-02-04T15:16:50;103633.97;;;12.85;69.86
45403;BME280;47427;51.976;5.326;2023-02-04T15:20:13;103627.94;;;12.73;69.77
45403;BME280;47427;51.976;5.326;2023-02-04T15:23:35;103632.06;;;12.54;70.62
45403;BME280;47427;51.976;5.326;2023-02-04T15:26:58;103636.78;;;12.32;71.41
45403;BME280;47427;51.976;5.326;2023-02-04T15:30:21;103641.81;;;12.01;72.32
45403;BME280;47427;51.976;5.326;2023-02-04T15:33:44;103646.03;;;11.85;73.29
45403;BME280;47427;51.976;5.326;2023-02-04T15:37:06;103642.47;;;11.71;74.05
45403;BME280;47427;51.976;5.326;2023-02-04T15:40:31;103652.09;;;11.71;75.37
45403;BME280;47427;51.976;5.326;2023-02-04T15:43:53;103649.78;;;11.62;75.81
45403;BME280;47427;51.976;5.326;2023-02-04T15:47:17;103645.50;;;11.51;76.86
45403;BME280;47427;51.976;5.326;2023-02-04T15:50:39;103640.94;;;11.48;77.64
45403;BME280;47427;51.976;5.326;2023-02-04T15:54:02;103645.97;;;11.32;78.43
45403;BME280;47427;51.976;5.326;2023-02-04T15:57:25;103636.44;;;11.21;78.50
45403;BME280;47427;51.976;5.326;2023-02-04T16:00:48;103646.34;;;11.12;78.96
45403;BME280;47427;51.976;5.326;2023-02-04T16:04:13;103643.88;;;11.01;79.12
45403;BME280;47427;51.976;5.326;2023-02-04T16:07:34;103642.88;;;10.99;80.37
45403;BME280;47427;51.976;5.326;2023-02-04T16:10:57;103649.94;;;11.00;81.18
45403;BME280;47427;51.976;5.326;2023-02-04T16:14:28;103649.84;;;10.99;81.74
45403;BME280;47427;51.976;5.326;2023-02-04T16:17:51;103651.19;;;10.94;82.22
45403;BME280;47427;51.976;5.326;2023-02-04T16:21:32;103652.59;;;10.89;82.97
45403;BME280;47427;51.976;5.326;2023-02-04T16:24:54;103645.41;;;10.86;82.93
45403;BME280;47427;51.976;5.326;2023-02-04T16:28:17;103659.03;;;10.80;83.11
45403;BME280;47427;51.976;5.326;2023-02-04T16:31:39;103659.19;;;10.70;83.29
45403;BME280;47427;51.976;5.326;2023-02-04T16:35:01;103661.47;;;10.66;82.93
45403;BME280;47427;51.976;5.326;2023-02-04T16:38:26;103671.50;;;10.46;83.65
45403;BME280;47427;51.976;5.326;2023-02-04T16:42:08;103672.63;;;10.38;83.98
45403;BME280;47427;51.976;5.326;2023-02-04T16:45:31;103666.81;;;10.30;84.29
45403;BME280;47427;51.976;5.326;2023-02-04T16:48:54;103675.16;;;10.36;85.00
45403;BME280;47427;51.976;5.326;2023-02-04T16:52:16;103678.56;;;10.35;85.53
45403;BME280;47427;51.976;5.326;2023-02-04T16:55:39;103675.84;;;10.34;84.93
45403;BME280;47427;51.976;5.326;2023-02-04T16:59:02;103686.81;;;10.28;84.78
45403;BME280;47427;51.976;5.326;2023-02-04T17:02:24;103681.56;;;10.28;85.52
45403;BME280;47427;51.976;5.326;2023-02-04T17:05:46;103685.19;;;10.30;85.83
45403;BME280;47427;51.976;5.326;2023-02-04T17:09:09;103686.00;;;10.29;86.46
45403;BME280;47427;51.976;5.326;2023-02-04T17:12:32;103684.94;;;10.27;86.40
45403;BME280;47427;51.976;5.326;2023-02-04T17:15:55;103690.88;;;10.25;87.26
45403;BME280;47427;51.976;5.326;2023-02-04T17:19:21;103689.75;;;10.21;87.53
45403;BME280;47427;51.976;5.326;2023-02-04T17:22:44;103688.97;;;10.10;87.44
45403;BME280;47427;51.976;5.326;2023-02-04T17:26:07;103689.53;;;10.06;87.80
45403;BME280;47427;51.976;5.326;2023-02-04T17:29:28;103697.88;;;10.01;88.21
45403;BME280;47427;51.976;5.326;2023-02-04T17:32:51;103693.06;;;9.95;88.74
45403;BME280;47427;51.976;5.326;2023-02-04T17:36:14;103690.81;;;9.88;89.30
45403;BME280;47427;51.976;5.326;2023-02-04T17:39:35;103697.50;;;9.84;89.95
45403;BME280;47427;51.976;5.326;2023-02-04T17:42:58;103699.78;;;9.80;90.54
45403;BME280;47427;51.976;5.326;2023-02-04T17:46:21;103704.56;;;9.73;90.65
45403;BME280;47427;51.976;5.326;2023-02-04T17:49:43;103695.44;;;9.68;91.21
45403;BME280;47427;51.976;5.326;2023-02-04T17:53:07;103698.22;;;9.70;91.49